Time;durP1;ratioP1;P1;durP2;ratioP2;P2;SDS_P1;SDS_P2;PMS_P1;PMS_P2;Temp;Humidity;BMP_temperature;BMP_pressure;BME280_temperature;BME280_humidity;BME280_pressure;Samples;Min_cycle;Max_cycle;Signal;HPM_P1;HPM_P2
2022/05/29 00:01:49;;;;;;;1.98;1.10;;;20.00;60.40;;;;;;4973508;28;20027;-76
2022/05/29 00:04:15;;;;;;;2.17;0.93;;;20.00;60.40;;;;;;4972646;28;20042;-76
2022/05/29 00:06:42;;;;;;;0.98;0.88;;;19.90;60.40;;;;;;4973911;28;20023;-75
2022/05/29 00:09:08;;;;;;;3.28;1.23;;;20.00;60.50;;;;;;4973663;28;20169;-75
2022/05/29 00:11:34;;;;;;;3.03;1.10;;;20.00;60.50;;;;;;4956618;28;20058;-75
2022/05/29 00:14:00;;;;;;;1.60;0.82;;;20.00;60.50;;;;;;4956493;28;20490;-75
2022/05/29 00:16:29;;;;;;;1.98;1.10;;;20.00;60.60;;;;;;4972059;28;20045;-76
2022/05/29 00:18:55;;;;;;;1.08;0.82;;;19.90;60.60;;;;;;4972360;28;20027;-75
2022/05/29 00:21:21;;;;;;;1.38;0.93;;;19.90;60.70;;;;;;4972242;28;20042;-75
2022/05/29 00:23:49;;;;;;;1.70;0.73;;;19.90;60.70;;;;;;4971611;28;20027;-75
2022/05/29 00:26:16;;;;;;;1.05;0.85;;;20.00;60.80;;;;;;4973455;28;20022;-75
2022/05/29 00:28:42;;;;;;;2.63;1.10;;;19.90;60.80;;;;;;4973730;28;20054;-75
2022/05/29 00:31:08;;;;;;;4.38;1.08;;;19.90;60.70;;;;;;4972085;28;20030;-75
2022/05/29 00:33:34;;;;;;;3.35;1.17;;;19.90;60.90;;;;;;4973416;28;20520;-75
2022/05/29 00:35:59;;;;;;;1.48;0.90;;;19.90;61.00;;;;;;4973385;28;20086;-75
2022/05/29 00:38:26;;;;;;;4.18;1.05;;;19.90;61.00;;;;;;4972544;28;20027;-74
2022/05/29 00:41:17;;;;;;;3.22;0.77;;;19.90;61.00;;;;;;4956163;28;20105;-75
2022/05/29 00:43:43;;;;;;;1.95;0.93;;;19.90;61.00;;;;;;4959260;28;20023;-75
2022/05/29 00:46:09;;;;;;;2.05;0.85;;;19.90;61.20;;;;;;4971942;28;20086;-75
2022/05/29 00:48:35;;;;;;;1.88;1.05;;;20.00;61.10;;;;;;4973511;28;20105;-75
2022/05/29 00:51:10;;;;;;;6.22;1.10;;;20.00;61.10;;;;;;4972062;28;20109;-74
2022/05/29 00:53:36;;;;;;;2.80;0.90;;;20.00;61.10;;;;;;4973351;28;20503;-75
2022/05/29 00:56:07;;;;;;;2.92;0.90;;;20.00;61.10;;;;;;4956197;28;20047;-75
2022/05/29 00:58:32;;;;;;;4.00;0.90;;;20.00;61.20;;;;;;4956132;28;20023;-75
2022/05/29 01:00:58;;;;;;;2.72;1.02;;;20.00;61.20;;;;;;4971650;28;20428;-75
2022/05/29 01:03:24;;;;;;;2.10;0.90;;;19.90;61.10;;;;;;4972335;28;20062;-75
2022/05/29 01:05:49;;;;;;;1.23;0.90;;;20.00;61.20;;;;;;4971845;28;20032;-75
2022/05/29 01:08:23;;;;;;;4.97;1.58;;;19.90;61.20;;;;;;4971898;28;20023;-75
2022/05/29 01:10:49;;;;;;;2.30;1.00;;;20.00;61.30;;;;;;4956109;28;20023;-75
2022/05/29 01:13:20;;;;;;;1.33;0.90;;;20.00;61.40;;;;;;4973449;28;20031;-75
2022/05/29 01:16:09;;;;;;;2.37;0.90;;;20.00;61.40;;;;;;4971840;28;20027;-75
2022/05/29 01:18:46;;;;;;;2.75;0.90;;;19.90;61.40;;;;;;4972710;28;20278;-75
2022/05/29 01:21:36;;;;;;;1.55;0.90;;;19.90;61.40;;;;;;4957056;28;20019;-75
2022/05/29 01:24:39;;;;;;;1.42;0.77;;;20.00;61.60;;;;;;4973242;28;20101;-75
2022/05/29 01:27:24;;;;;;;1.83;0.80;;;19.90;61.50;;;;;;4972978;28;20100;-75
2022/05/29 01:30:04;;;;;;;0.85;0.82;;;19.90;61.50;;;;;;4972684;28;20031;-75
2022/05/29 01:32:42;;;;;;;4.15;0.95;;;19.90;61.50;;;;;;4971620;28;20027;-75
2022/05/29 01:35:23;;;;;;;2.70;0.80;;;20.00;61.70;;;;;;4974746;28;20039;-75
2022/05/29 01:37:53;;;;;;;2.67;1.10;;;19.90;61.60;;;;;;4960459;28;20042;-75
2022/05/29 01:40:38;;;;;;;5.18;1.08;;;19.90;61.60;;;;;;4959470;28;20065;-75
2022/05/29 01:43:11;;;;;;;2.03;0.90;;;19.90;61.60;;;;;;4975125;28;20055;-75
2022/05/29 01:45:58;;;;;;;1.40;0.80;;;19.90;61.70;;;;;;4974875;28;20460;-75
2022/05/29 01:48:37;;;;;;;2.47;0.77;;;19.90;61.70;;;;;;4976186;28;20034;-76
2022/05/29 01:51:29;;;;;;;1.80;0.90;;;19.90;61.70;;;;;;4975069;28;20023;-76
2022/05/29 01:53:59;;;;;;;2.30;0.90;;;19.90;61.70;;;;;;4959998;28;20544;-75
2022/05/29 01:56:33;;;;;;;4.53;1.00;;;19.90;61.80;;;;;;4958958;28;20494;-75
2022/05/29 01:59:22;;;;;;;1.10;0.80;;;19.90;61.80;;;;;;4974595;28;20057;-75
2022/05/29 02:01:52;;;;;;;1.50;0.77;;;19.90;61.90;;;;;;4974671;28;20089;-75
2022/05/29 02:04:25;;;;;;;3.33;0.95;;;19.90;62.00;;;;;;4959065;28;20077;-76
2022/05/29 02:09:41;;;;;;;1.35;0.80;;;19.90;62.10;;;;;;4961506;28;20085;-75
2022/05/29 02:12:09;;;;;;;2.00;1.00;;;19.90;62.10;;;;;;4958515;28;20034;-75
2022/05/29 02:14:39;;;;;;;1.80;0.80;;;19.90;62.10;;;;;;4958797;28;20114;-74
2022/05/29 02:17:10;;;;;;;2.60;0.88;;;19.90;62.10;;;;;;4942893;28;20393;-74
2022/05/29 02:19:51;;;;;;;1.75;0.73;;;19.90;62.10;;;;;;4975532;28;20057;-74
2022/05/29 02:22:27;;;;;;;1.33;0.80;;;19.90;62.20;;;;;;4974672;28;20029;-74
2022/05/29 02:25:24;;;;;;;3.47;0.75;;;19.90;62.10;;;;;;4974355;28;20026;-74
2022/05/29 02:28:01;;;;;;;4.18;0.80;;;19.90;62.10;;;;;;4974855;28;20042;-74
2022/05/29 02:30:37;;;;;;;2.95;0.80;;;19.90;62.10;;;;;;4974257;28;20022;-74
2022/05/29 02:33:31;;;;;;;3.15;1.00;;;19.90;62.10;;;;;;4974043;28;20025;-74
2022/05/29 02:36:19;;;;;;;2.83;1.17;;;19.90;62.20;;;;;;4974238;28;20041;-75
2022/05/29 02:39:38;;;;;;;2.42;0.90;;;19.90;62.10;;;;;;4961217;28;20078;-75
2022/05/29 02:42:16;;;;;;;2.00;0.93;;;19.90;62.30;;;;;;4972880;28;20130;-75
2022/05/29 02:44:52;;;;;;;5.75;1.70;;;19.90;62.30;;;;;;4957075;28;20438;-76
2022/05/29 02:47:36;;;;;;;2.17;0.85;;;19.90;62.30;;;;;;4956713;28;20122;-76
2022/05/29 02:50:19;;;;;;;3.03;1.45;;;19.90;62.40;;;;;;4956870;28;20516;-75
2022/05/29 02:52:45;;;;;;;1.40;0.90;;;19.90;62.50;;;;;;4972970;28;20035;-75
2022/05/29 02:55:11;;;;;;;1.38;0.77;;;19.90;62.40;;;;;;4956734;28;20030;-75
2022/05/29 02:57:36;;;;;;;2.47;1.15;;;19.90;62.50;;;;;;4972535;28;20573;-76
2022/05/29 03:00:11;;;;;;;1.17;0.82;;;19.90;62.50;;;;;;4956729;28;20058;-76
2022/05/29 03:03:03;;;;;;;5.78;1.02;;;19.90;62.40;;;;;;4957864;28;20493;-75
2022/05/29 03:05:56;;;;;;;1.77;0.73;;;19.90;62.50;;;;;;4956485;28;20439;-75
2022/05/29 03:08:24;;;;;;;0.98;0.80;;;19.90;62.50;;;;;;4956567;28;20117;-76
2022/05/29 03:11:12;;;;;;;2.55;0.73;;;19.90;62.60;;;;;;4972404;28;20486;-75
2022/05/29 03:13:47;;;;;;;1.00;0.65;;;19.90;62.60;;;;;;4956525;28;20035;-75
2022/05/29 03:16:33;;;;;;;3.28;0.80;;;19.80;62.60;;;;;;4967138;28;20507;-75
2022/05/29 03:19:19;;;;;;;2.78;0.75;;;19.90;62.70;;;;;;4973498;28;20031;-75
2022/05/29 03:21:54;;;;;;;1.52;0.93;;;19.90;62.70;;;;;;4973425;28;20023;-75
2022/05/29 03:24:36;;;;;;;1.77;0.88;;;19.90;62.70;;;;;;4974170;28;20045;-76
2022/05/29 03:27:20;;;;;;;1.90;0.93;;;19.90;62.70;;;;;;4973308;28;20031;-76
2022/05/29 03:30:14;;;;;;;6.70;0.77;;;19.90;62.80;;;;;;4974275;28;20509;-75
2022/05/29 03:32:39;;;;;;;1.65;0.70;;;19.90;62.80;;;;;;4963162;28;20042;-75
2022/05/29 03:35:16;;;;;;;2.40;0.98;;;19.80;62.70;;;;;;4953747;29;20034;-75
2022/05/29 03:37:42;;;;;;;5.07;0.77;;;19.80;62.80;;;;;;4954980;29;20023;-75
2022/05/29 03:40:09;;;;;;;1.67;0.70;;;19.80;62.70;;;;;;4954632;29;20028;-75
2022/05/29 03:42:34;;;;;;;1.08;0.77;;;19.80;62.80;;;;;;4954709;29;20016;-75
2022/05/29 03:45:00;;;;;;;1.90;1.05;;;19.90;62.80;;;;;;4954540;29;20030;-75
2022/05/29 03:47:27;;;;;;;2.47;0.70;;;19.90;62.90;;;;;;4953483;29;20105;-75
2022/05/29 03:49:52;;;;;;;1.20;0.70;;;19.90;62.90;;;;;;4953779;29;20023;-75
2022/05/29 03:52:18;;;;;;;2.25;0.98;;;19.80;62.80;;;;;;4954626;29;20050;-75
2022/05/29 03:54:44;;;;;;;2.28;0.70;;;19.80;62.70;;;;;;4954650;29;20027;-76
2022/05/29 03:57:09;;;;;;;2.35;1.10;;;19.90;62.90;;;;;;4954459;28;20063;-76
2022/05/29 03:59:35;;;;;;;1.80;0.90;;;19.90;62.90;;;;;;4954599;29;20106;-76
2022/05/29 04:02:01;;;;;;;0.90;0.60;;;19.90;62.90;;;;;;4953436;29;20386;-76
2022/05/29 04:04:26;;;;;;;2.15;0.82;;;19.90;62.80;;;;;;4954561;29;20035;-76
2022/05/29 04:06:52;;;;;;;2.13;0.80;;;19.90;62.80;;;;;;4954545;29;20027;-75
2022/05/29 04:12:04;;;;;;;1.70;0.77;;;19.80;62.80;;;;;;4954735;29;20034;-76
2022/05/29 04:14:37;;;;;;;1.70;0.90;;;19.80;62.80;;;;;;4954543;29;20032;-75
2022/05/29 04:17:03;;;;;;;8.77;0.77;;;19.80;62.80;;;;;;4952964;29;20038;-75
2022/05/29 04:19:29;;;;;;;4.88;0.80;;;19.80;62.90;;;;;;4955014;28;20027;-76
2022/05/29 04:21:55;;;;;;;1.05;0.95;;;19.80;62.90;;;;;;4973537;28;20058;-75
2022/05/29 04:24:20;;;;;;;3.00;0.93;;;19.90;62.90;;;;;;4972013;28;20023;-75
2022/05/29 04:26:47;;;;;;;1.23;0.90;;;19.90;63.00;;;;;;4973603;28;20097;-75
2022/05/29 04:29:13;;;;;;;2.20;0.85;;;19.90;62.90;;;;;;4972313;28;20555;-75
2022/05/29 04:32:59;;;;;;;1.98;0.82;;;19.80;62.90;;;;;;4971351;28;20059;-75
2022/05/29 04:34:24;;;;;;;2.08;0.80;;;19.90;62.90;;;;;;4953720;28;20042;-75
2022/05/29 04:36:50;;;;;;;2.28;0.70;;;19.90;63.00;;;;;;4952782;29;20035;-75
2022/05/29 04:39:16;;;;;;;2.78;0.60;;;19.90;63.00;;;;;;4954059;29;20024;-76
2022/05/29 04:41:41;;;;;;;1.65;0.77;;;19.90;63.00;;;;;;4954258;29;20094;-75
2022/05/29 04:44:07;;;;;;;2.15;0.75;;;19.80;63.00;;;;;;4952775;29;20098;-75
2022/05/29 04:46:32;;;;;;;2.78;1.10;;;19.90;63.10;;;;;;4953762;29;20043;-75
2022/05/29 04:48:58;;;;;;;1.88;0.70;;;19.80;63.00;;;;;;4954657;29;20474;-76
2022/05/29 04:51:24;;;;;;;3.17;0.70;;;19.80;63.00;;;;;;4954190;29;20023;-76
2022/05/29 04:53:49;;;;;;;2.88;0.70;;;19.90;63.10;;;;;;4953973;29;20074;-76
2022/05/29 04:56:15;;;;;;;2.90;0.75;;;19.80;63.00;;;;;;4953906;29;20070;-76
2022/05/29 04:58:40;;;;;;;2.60;0.80;;;19.80;63.00;;;;;;4953957;29;20031;-76
2022/05/29 05:01:06;;;;;;;1.13;0.80;;;19.80;63.10;;;;;;4952615;29;20051;-75
2022/05/29 05:03:32;;;;;;;0.70;0.60;;;19.80;63.10;;;;;;4954025;29;20027;-76
2022/05/29 05:05:58;;;;;;;2.47;0.70;;;19.80;63.10;;;;;;4952664;29;20482;-75
2022/05/29 05:08:23;;;;;;;1.55;0.68;;;19.80;63.10;;;;;;4952551;28;20567;-75
2022/05/29 05:10:49;;;;;;;4.78;0.90;;;19.80;63.10;;;;;;4956821;29;20565;-75
2022/05/29 05:13:15;;;;;;;1.58;0.70;;;19.80;63.10;;;;;;4957508;29;20031;-75
2022/05/29 05:15:40;;;;;;;0.95;0.85;;;19.80;63.10;;;;;;4956378;29;20497;-75
2022/05/29 05:18:06;;;;;;;1.60;1.00;;;19.80;63.10;;;;;;4956291;29;20029;-76
2022/05/29 05:20:33;;;;;;;2.38;0.90;;;19.80;63.20;;;;;;4966222;28;20058;-75
2022/05/29 05:22:59;;;;;;;2.05;0.90;;;19.80;63.20;;;;;;4976506;28;20019;-75
2022/05/29 05:25:24;;;;;;;1.27;0.77;;;19.80;63.30;;;;;;4975538;28;20520;-75
2022/05/29 05:27:51;;;;;;;1.63;0.70;;;19.80;63.20;;;;;;4975452;28;20066;-76
2022/05/29 05:30:16;;;;;;;2.42;0.82;;;19.80;63.40;;;;;;4976450;28;20022;-75
2022/05/29 05:32:42;;;;;;;0.80;0.75;;;19.80;63.40;;;;;;4967198;28;20032;-75
2022/05/29 05:35:08;;;;;;;3.00;1.05;;;19.80;63.30;;;;;;4956722;29;20106;-75
2022/05/29 05:37:37;;;;;;;1.50;1.00;;;19.80;63.40;;;;;;4955936;29;20023;-76
2022/05/29 05:40:04;;;;;;;3.20;0.70;;;19.80;63.50;;;;;;4956170;29;20039;-75
2022/05/29 05:42:29;;;;;;;5.95;0.93;;;19.80;63.30;;;;;;4955681;29;20478;-75
2022/05/29 05:44:56;;;;;;;9.00;1.00;;;19.80;63.40;;;;;;4963019;28;20038;-75
2022/05/29 05:47:24;;;;;;;1.00;0.60;;;19.80;63.50;;;;;;4972981;28;20023;-75
2022/05/29 05:49:50;;;;;;;8.18;1.15;;;19.80;63.50;;;;;;4971720;28;20077;-76
2022/05/29 05:52:16;;;;;;;1.20;0.70;;;19.80;63.60;;;;;;4971640;28;20054;-76
2022/05/29 05:54:42;;;;;;;2.20;0.63;;;19.70;63.50;;;;;;4973711;28;20110;-75
2022/05/29 05:57:08;;;;;;;1.60;0.80;;;19.80;63.70;;;;;;4974621;28;20126;-76
2022/05/29 05:59:37;;;;;;;2.85;0.90;;;19.80;63.70;;;;;;4974804;28;20085;-75
2022/05/29 06:02:03;;;;;;;2.03;0.90;;;19.80;63.50;;;;;;4975087;28;20023;-76
2022/05/29 06:04:29;;;;;;;3.33;0.98;;;19.80;63.60;;;;;;4974559;28;20501;-75
2022/05/29 06:06:55;;;;;;;5.38;0.77;;;19.80;63.60;;;;;;4975972;28;20062;-76
2022/05/29 06:09:22;;;;;;;3.22;0.63;;;19.80;63.60;;;;;;4975766;28;20111;-75
2022/05/29 06:11:48;;;;;;;5.07;1.00;;;19.80;63.60;;;;;;4975911;28;20034;-75
2022/05/29 06:14:14;;;;;;;4.93;1.08;;;19.80;63.70;;;;;;4975728;28;20568;-75
2022/05/29 06:16:39;;;;;;;6.38;1.02;;;19.80;63.70;;;;;;4974627;28;20105;-75
2022/05/29 06:19:06;;;;;;;9.65;0.80;;;19.80;63.70;;;;;;4974238;28;20034;-75
2022/05/29 06:21:32;;;;;;;5.93;1.33;;;19.80;63.80;;;;;;4973234;28;20061;-75
2022/05/29 06:23:58;;;;;;;2.30;0.70;;;19.80;63.80;;;;;;4974359;28;20074;-76
2022/05/29 06:26:23;;;;;;;1.92;0.70;;;19.80;63.80;;;;;;4974420;28;20026;-79
2022/05/29 06:28:49;;;;;;;4.55;0.90;;;19.80;63.90;;;;;;4975537;28;20026;-79
2022/05/29 06:31:15;;;;;;;3.42;0.90;;;19.80;63.90;;;;;;4975506;28;20034;-76
2022/05/29 06:33:41;;;;;;;2.90;0.80;;;19.80;63.70;;;;;;4956822;28;20073;-76
2022/05/29 06:36:25;;;;;;;4.45;0.70;;;19.70;63.50;;;;;;4956193;29;20482;-75
2022/05/29 06:38:52;;;;;;;5.13;1.00;;;19.70;63.60;;;;;;4956173;29;20035;-76
2022/05/29 06:41:20;;;;;;;3.05;0.80;;;19.70;63.50;;;;;;4954818;29;20038;-75
2022/05/29 06:43:46;;;;;;;1.90;0.63;;;19.70;63.50;;;;;;4954841;29;20026;-75
2022/05/29 06:46:12;;;;;;;0.95;0.60;;;19.80;63.60;;;;;;4954551;29;20043;-75
2022/05/29 06:48:38;;;;;;;1.55;0.77;;;19.80;63.60;;;;;;4954358;29;20027;-75
2022/05/29 06:51:09;;;;;;;2.45;0.88;;;19.80;63.60;;;;;;4954772;29;20031;-75
2022/05/29 06:53:35;;;;;;;3.15;0.70;;;19.70;63.60;;;;;;4955702;29;20121;-75
2022/05/29 06:56:00;;;;;;;3.10;0.90;;;19.80;63.70;;;;;;4954582;29;20034;-75
2022/05/29 06:58:26;;;;;;;2.47;0.80;;;19.80;63.70;;;;;;4954303;29;20062;-75
2022/05/29 07:09:05;;;;;;;4.20;0.73;;;19.80;63.70;;;;;;4975392;28;20507;-75
2022/05/29 07:11:35;;;;;;;2.33;0.73;;;19.70;63.70;;;;;;4973865;28;20099;-76
2022/05/29 07:14:02;;;;;;;1.40;0.90;;;19.70;63.80;;;;;;4974275;28;20046;-76
2022/05/29 07:16:28;;;;;;;4.80;0.90;;;19.70;63.80;;;;;;4973145;28;20026;-75
2022/05/29 07:18:54;;;;;;;2.08;0.75;;;19.70;63.90;;;;;;4972763;28;20088;-75
2022/05/29 07:21:20;;;;;;;3.75;1.00;;;19.70;63.90;;;;;;4972702;28;20150;-75
2022/05/29 07:23:46;;;;;;;2.15;0.65;;;19.70;63.90;;;;;;4971751;28;20026;-76
2022/05/29 07:26:11;;;;;;;3.35;0.80;;;19.70;63.90;;;;;;4974892;28;20151;-75
2022/05/29 07:28:37;;;;;;;2.35;0.73;;;19.70;63.90;;;;;;4975071;28;20027;-76
2022/05/29 07:31:03;;;;;;;3.10;1.00;;;19.70;64.00;;;;;;4974618;28;20026;-76
2022/05/29 07:33:29;;;;;;;4.13;0.65;;;19.70;64.00;;;;;;4973152;28;20031;-75
2022/05/29 07:35:55;;;;;;;2.78;0.80;;;19.70;64.00;;;;;;4973593;28;20073;-75
2022/05/29 07:38:20;;;;;;;3.30;0.77;;;19.80;64.10;;;;;;4973621;28;20098;-75
2022/05/29 07:40:46;;;;;;;4.68;1.27;;;19.70;64.00;;;;;;4974745;28;20413;-75
2022/05/29 07:43:22;;;;;;;1.20;0.75;;;19.70;64.00;;;;;;4973468;28;20130;-75
2022/05/29 07:45:57;;;;;;;2.30;0.85;;;19.70;64.10;;;;;;4974286;28;20145;-75
2022/05/29 07:48:25;;;;;;;2.40;0.80;;;19.70;64.20;;;;;;4973567;28;20019;-75
2022/05/29 07:50:51;;;;;;;4.25;0.68;;;19.70;64.10;;;;;;4973672;28;20047;-75
2022/05/29 07:53:17;;;;;;;4.07;0.93;;;19.70;64.20;;;;;;4974997;28;20425;-75
2022/05/29 07:55:46;;;;;;;4.15;0.70;;;19.70;64.20;;;;;;4974673;28;20090;-75
2022/05/29 07:58:12;;;;;;;1.52;0.70;;;19.70;64.20;;;;;;4973296;28;20039;-75
2022/05/29 08:00:38;;;;;;;3.28;0.82;;;19.70;64.30;;;;;;4972888;28;20025;-75
2022/05/29 08:03:04;;;;;;;2.80;0.70;;;19.70;64.30;;;;;;4973012;28;20105;-75
2022/05/29 08:05:31;;;;;;;4.20;0.90;;;19.70;64.30;;;;;;4973156;28;20043;-75
2022/05/29 08:07:57;;;;;;;3.85;0.77;;;19.70;64.20;;;;;;4973355;28;20022;-75
2022/05/29 08:10:23;;;;;;;0.65;0.50;;;19.70;64.30;;;;;;4972845;28;20027;-75
2022/05/29 08:12:48;;;;;;;1.42;0.73;;;19.70;64.30;;;;;;4974458;28;20030;-75
2022/05/29 08:15:14;;;;;;;2.33;0.90;;;19.70;64.30;;;;;;4974230;28;20030;-76
2022/05/29 08:17:40;;;;;;;3.00;0.73;;;19.70;64.30;;;;;;4972813;28;20544;-76
2022/05/29 08:20:06;;;;;;;5.30;0.85;;;19.70;64.30;;;;;;4972706;28;20027;-75
2022/05/29 08:22:32;;;;;;;2.42;0.60;;;19.70;64.40;;;;;;4972737;28;20073;-74
2022/05/29 08:30:38;;;;;;;3.05;0.80;;;19.70;64.40;;;;;;4972909;28;20050;-75
2022/05/29 08:33:11;;;;;;;4.70;0.50;;;19.70;64.40;;;;;;4972965;28;20034;-75
2022/05/29 08:35:38;;;;;;;1.65;0.63;;;19.70;64.50;;;;;;4957023;28;20034;-80
2022/05/29 08:38:04;;;;;;;2.75;0.98;;;19.70;64.60;;;;;;4956295;28;20027;-75
2022/05/29 08:40:30;;;;;;;1.63;0.80;;;19.70;64.60;;;;;;4971959;28;20019;-75
2022/05/29 08:42:56;;;;;;;2.53;0.90;;;19.70;64.50;;;;;;4956629;28;20027;-76
2022/05/29 08:45:22;;;;;;;2.55;0.85;;;19.70;64.30;;;;;;4975890;28;20390;-81
2022/05/29 08:47:47;;;;;;;3.80;0.80;;;19.70;64.30;;;;;;4960759;28;20047;-79
2022/05/29 08:50:30;;;;;;;2.38;0.80;;;19.70;64.20;;;;;;4977756;28;20070;-78
2022/05/29 08:53:04;;;;;;;2.03;0.60;;;19.70;64.10;;;;;;4961478;28;20486;-78
2022/05/29 08:55:39;;;;;;;0.95;0.75;;;19.70;64.00;;;;;;4960545;28;20532;-77
2022/05/29 08:58:36;;;;;;;1.85;0.60;;;19.70;64.00;;;;;;4961397;28;20092;-78
2022/05/29 09:01:22;;;;;;;1.85;0.70;;;19.70;63.90;;;;;;4977965;28;20023;-77
2022/05/29 09:03:56;;;;;;;4.68;0.70;;;19.70;63.90;;;;;;4976667;28;20497;-77
2022/05/29 09:06:43;;;;;;;0.77;0.60;;;19.70;63.70;;;;;;4976510;28;20027;-76
2022/05/29 09:09:21;;;;;;;1.13;0.57;;;19.70;63.70;;;;;;4960353;28;20035;-75
2022/05/29 09:11:51;;;;;;;3.20;0.60;;;19.70;63.60;;;;;;4977683;28;20037;-75
2022/05/29 09:14:40;;;;;;;2.40;0.70;;;19.70;63.60;;;;;;4976062;28;20123;-76
2022/05/29 09:17:35;;;;;;;1.02;0.60;;;19.70;63.50;;;;;;4976515;28;20034;-75
2022/05/29 09:20:02;;;;;;;1.63;0.73;;;19.60;63.50;;;;;;4959329;28;20086;-76
2022/05/29 09:22:42;;;;;;;1.02;0.77;;;19.60;63.50;;;;;;4974901;28;20071;-78
2022/05/29 09:25:30;;;;;;;1.77;0.60;;;19.60;63.40;;;;;;4975181;28;20027;-77
2022/05/29 09:28:01;;;;;;;0.90;0.55;;;19.60;63.30;;;;;;4958989;28;20035;-78
2022/05/29 09:30:27;;;;;;;2.17;0.65;;;19.60;63.30;;;;;;4959637;28;20062;-77
2022/05/29 09:32:56;;;;;;;1.20;0.70;;;19.60;63.20;;;;;;4974963;28;20386;-76
2022/05/29 09:35:54;;;;;;;1.40;0.70;;;19.60;63.20;;;;;;4959555;28;20023;-76
2022/05/29 09:38:31;;;;;;;0.75;0.50;;;19.60;63.20;;;;;;4974908;28;20039;-76
2022/05/29 09:41:27;;;;;;;1.13;0.50;;;19.60;63.20;;;;;;4975279;28;20030;-76
2022/05/29 09:44:05;;;;;;;1.08;0.60;;;19.60;63.20;;;;;;4953967;29;20050;-71
2022/05/29 09:46:32;;;;;;;2.53;0.65;;;19.60;62.30;;;;;;4953362;29;20419;-71
2022/05/29 09:51:49;;;;;;;3.95;0.70;;;19.50;60.80;;;;;;4940943;29;20097;-69
2022/05/29 09:54:29;;;;;;;3.28;1.00;;;19.60;61.00;;;;;;4940387;29;20516;-69
2022/05/29 09:57:05;;;;;;;7.25;1.27;;;19.60;60.20;;;;;;4930661;29;20047;-69
2022/05/29 09:59:30;;;;;;;2.97;0.68;;;19.50;58.30;;;;;;4959432;28;20050;-69
2022/05/29 10:02:01;;;;;;;2.83;0.88;;;19.50;58.00;;;;;;4960037;28;20094;-69
2022/05/29 10:04:37;;;;;;;2.38;0.60;;;19.50;57.90;;;;;;4959875;28;20030;-69
2022/05/29 10:07:31;;;;;;;1.77;0.90;;;19.50;58.80;;;;;;4944992;28;20098;-70
2022/05/29 10:10:01;;;;;;;2.75;0.70;;;19.50;58.90;;;;;;4970984;28;20069;-72
2022/05/29 10:12:47;;;;;;;3.65;0.80;;;19.60;58.50;;;;;;4959207;28;20039;-72
2022/05/29 10:15:13;;;;;;;2.65;1.15;;;19.60;58.50;;;;;;4943364;28;20090;-72
2022/05/29 10:17:40;;;;;;;6.57;1.10;;;19.70;57.80;;;;;;4959081;28;20030;-72
2022/05/29 10:20:25;;;;;;;1.42;0.90;;;19.80;58.60;;;;;;4967761;28;20053;-72
2022/05/29 10:22:52;;;;;;;1.92;0.90;;;19.80;56.40;;;;;;4976473;28;20023;-71
2022/05/29 10:25:29;;;;;;;2.00;0.85;;;19.80;56.70;;;;;;4977524;28;20487;-72
2022/05/29 10:27:57;;;;;;;5.30;0.80;;;19.80;55.80;;;;;;4975042;28;20397;-72
2022/05/29 10:30:28;;;;;;;1.70;0.70;;;19.80;55.20;;;;;;4976090;28;20393;-73
2022/05/29 10:33:01;;;;;;;2.75;0.90;;;19.80;55.30;;;;;;4974697;28;20022;-75
2022/05/29 10:35:28;;;;;;;3.72;1.10;;;19.90;56.90;;;;;;4939866;29;20038;-75
2022/05/29 10:37:54;;;;;;;1.55;0.80;;;20.00;56.20;;;;;;4956660;29;20468;-75
2022/05/29 10:40:27;;;;;;;3.28;0.90;;;20.00;56.30;;;;;;4955175;29;20022;-74
2022/05/29 10:42:55;;;;;;;2.22;0.77;;;20.10;55.40;;;;;;4956694;28;20077;-75
2022/05/29 10:45:24;;;;;;;1.48;0.88;;;20.10;54.70;;;;;;4956519;29;20063;-74
2022/05/29 10:48:20;;;;;;;1.23;0.63;;;20.10;54.50;;;;;;4955493;28;20023;-74
2022/05/29 10:51:08;;;;;;;2.03;0.88;;;20.20;54.30;;;;;;4974364;28;20021;-75
2022/05/29 10:54:01;;;;;;;4.28;1.17;;;20.20;56.10;;;;;;4974238;28;20474;-74
2022/05/29 10:56:30;;;;;;;2.10;1.00;;;20.30;55.00;;;;;;4975052;28;20039;-75
2022/05/29 10:59:03;;;;;;;1.25;0.80;;;20.30;53.50;;;;;;4975567;28;20025;-74
2022/05/29 11:05:03;;;;;;;1.33;1.00;;;20.40;56.20;;;;;;4974599;28;20030;-75
2022/05/29 11:07:39;;;;;;;2.38;0.88;;;20.50;55.30;;;;;;4960104;28;20385;-75
2022/05/29 11:10:14;;;;;;;1.52;0.93;;;20.50;54.90;;;;;;4974321;28;20493;-75
2022/05/29 11:12:40;;;;;;;3.35;1.08;;;20.50;55.60;;;;;;4974102;28;20023;-73
2022/05/29 11:15:28;;;;;;;0.75;0.75;;;20.60;56.50;;;;;;4975381;28;20445;-74
2022/05/29 11:18:33;;;;;;;1.67;0.80;;;20.60;54.40;;;;;;4973894;28;20081;-74
2022/05/29 11:20:59;;;;;;;0.63;0.60;;;20.60;55.60;;;;;;4986608;28;20049;-74
2022/05/29 11:23:43;;;;;;;0.90;0.63;;;20.70;56.30;;;;;;4994294;28;20030;-74
2022/05/29 11:26:22;;;;;;;1.15;1.00;;;20.70;55.80;;;;;;4994537;28;20030;-75
2022/05/29 11:29:09;;;;;;;3.00;0.93;;;20.70;56.10;;;;;;4993445;28;20412;-75
2022/05/29 11:31:46;;;;;;;1.25;0.68;;;20.70;55.20;;;;;;4993818;28;20025;-75
2022/05/29 11:34:31;;;;;;;1.52;0.85;;;20.80;56.40;;;;;;4975013;28;20023;-72
2022/05/29 11:37:06;;;;;;;2.00;0.80;;;20.80;56.30;;;;;;4973657;28;20071;-73
2022/05/29 11:39:44;;;;;;;0.70;0.70;;;20.80;56.20;;;;;;4974520;28;20038;-73
2022/05/29 11:42:16;;;;;;;0.80;0.65;;;20.80;55.90;;;;;;4973842;28;20026;-73
2022/05/29 11:44:47;;;;;;;1.08;0.70;;;20.80;56.10;;;;;;4974716;28;20031;-73
2022/05/29 11:53:18;;;;;;;1.67;0.90;;;20.80;54.10;;;;;;4979414;28;20579;-72
2022/05/29 11:55:44;;;;;;;1.20;0.70;;;20.80;54.70;;;;;;4992767;28;20097;-72
2022/05/29 11:58:26;;;;;;;3.30;1.02;;;20.90;55.10;;;;;;4976840;28;20031;-72
2022/05/29 12:01:21;;;;;;;1.17;0.80;;;20.90;55.40;;;;;;4993855;28;20026;-72
2022/05/29 12:03:56;;;;;;;2.25;0.75;;;20.90;55.30;;;;;;4991604;28;20129;-72
2022/05/29 12:06:30;;;;;;;0.70;0.68;;;20.90;55.00;;;;;;4977187;28;20024;-72
2022/05/29 12:09:12;;;;;;;0.88;0.70;;;20.90;55.30;;;;;;4976541;28;20089;-73
2022/05/29 12:11:40;;;;;;;2.38;0.73;;;20.90;54.30;;;;;;4992476;28;20081;-73
2022/05/29 12:14:25;;;;;;;1.77;0.90;;;20.90;53.50;;;;;;4993883;28;20030;-72
2022/05/29 12:16:58;;;;;;;1.73;0.95;;;20.90;54.20;;;;;;4977752;28;20026;-73
2022/05/29 12:19:35;;;;;;;1.17;0.70;;;21.00;55.20;;;;;;4977606;28;20053;-73
2022/05/29 12:22:08;;;;;;;1.38;0.70;;;20.90;53.50;;;;;;4954077;28;20036;-73
2022/05/29 12:24:36;;;;;;;0.60;0.60;;;21.00;54.80;;;;;;4953783;29;20023;-73
2022/05/29 12:27:13;;;;;;;1.08;0.65;;;21.00;54.80;;;;;;4953648;29;20038;-73
2022/05/29 12:29:48;;;;;;;1.50;0.75;;;21.10;54.30;;;;;;4969543;28;20466;-73
2022/05/29 12:32:28;;;;;;;1.00;0.50;;;21.10;53.90;;;;;;4972769;28;20026;-73
2022/05/29 12:34:58;;;;;;;0.95;0.65;;;21.10;54.40;;;;;;4957004;28;20139;-72
2022/05/29 12:37:51;;;;;;;0.90;0.50;;;21.10;54.80;;;;;;4957066;28;20072;-72
2022/05/29 12:40:34;;;;;;;1.50;0.70;;;21.10;54.90;;;;;;4974047;28;20449;-72
2022/05/29 12:43:36;;;;;;;2.28;0.85;;;21.20;55.20;;;;;;4972865;28;20038;-72
2022/05/29 12:46:23;;;;;;;1.38;0.60;;;21.20;54.70;;;;;;4971984;28;20070;-70
2022/05/29 12:48:54;;;;;;;0.75;0.50;;;21.20;55.30;;;;;;4973146;28;20034;-70
2022/05/29 12:51:41;;;;;;;0.98;0.60;;;21.10;55.50;;;;;;4983831;28;20026;-69
2022/05/29 12:54:40;;;;;;;0.77;0.60;;;21.00;55.20;;;;;;4972892;28;20110;-69
2022/05/29 12:57:47;;;;;;;1.73;0.68;;;21.00;55.20;;;;;;4973370;28;20082;-69
2022/05/29 13:00:34;;;;;;;1.80;0.82;;;20.90;55.40;;;;;;4970695;28;20580;-69
2022/05/29 13:03:23;;;;;;;2.63;0.70;;;20.90;55.10;;;;;;4971096;28;20019;-70
2022/05/29 13:06:04;;;;;;;2.05;0.63;;;20.90;56.10;;;;;;4970255;28;20121;-69
2022/05/29 13:08:42;;;;;;;1.70;0.82;;;20.90;56.00;;;;;;4970908;28;20019;-69
2022/05/29 13:11:08;;;;;;;8.30;1.85;;;20.90;56.10;;;;;;4970964;28;20049;-69
2022/05/29 13:13:38;;;;;;;5.82;1.73;;;20.80;55.40;;;;;;4970612;28;20027;-70
2022/05/29 13:16:27;;;;;;;68.00;26.52;;;20.80;56.00;;;;;;4970691;28;20089;-70
2022/05/29 13:19:09;;;;;;;230.65;82.32;;;20.80;57.20;;;;;;4970349;28;20386;-71
2022/05/29 13:22:19;;;;;;;217.70;80.18;;;20.90;57.50;;;;;;4970541;28;20035;-70
2022/05/29 13:24:46;;;;;;;251.25;81.82;;;20.90;57.00;;;;;;4969437;28;20046;-70
2022/05/29 13:27:12;;;;;;;260.42;88.50;;;20.90;56.70;;;;;;4938363;28;20031;-70
2022/05/29 13:29:46;;;;;;;239.23;83.65;;;20.90;57.30;;;;;;4970403;28;20085;-69
2022/05/29 13:32:15;;;;;;;204.07;74.15;;;20.90;56.30;;;;;;4953598;29;20497;-69
2022/05/29 13:34:46;;;;;;;204.10;73.28;;;20.90;56.20;;;;;;4954782;29;20063;-69
2022/05/29 13:37:44;;;;;;;198.13;71.87;;;20.90;55.40;;;;;;4955805;29;20047;-69
2022/05/29 13:40:21;;;;;;;210.57;76.68;;;20.90;56.20;;;;;;4955731;29;20058;-69
2022/05/29 13:42:52;;;;;;;217.52;76.30;;;20.90;56.40;;;;;;4955721;28;20032;-69
2022/05/29 13:45:24;;;;;;;205.38;73.57;;;20.90;56.60;;;;;;4955666;29;20035;-69
2022/05/29 13:48:05;;;;;;;179.25;67.72;;;20.90;56.30;;;;;;4956518;28;20031;-69